EmailTwitter


Observations de surface / Canada / CYYZ (71624)

Régions: Québec | Canada | États-Unis | Europe | France | UK | Elsewhere
Station
Affichage
Infos & localisation pour CYYZ (71624) | Aide pour décoder les METARs

Observations prises le 2017-04-27 à 10H00 UTC à TORONTO A, ON (CYYZ)

Etat du ciel: ciel variable.

Température: 9.0 Celsius

Point de rosée: 8.0 Celsius

Humidité relative: 93%

Vents: Nord-est à 6 km/h ou 3 noeuds.

Pression au niveau moyen de la mer: 100.43 kilopascals.

Calage altimétrique: 100.41 kilopascals ou 29.65 pouces de mercure.

Visibilité horizontale: 15.00 milles terrestres ou 24.00 kilomètres.

Observation METAR:

CYYZ 271000Z 05003KT 15SM SCT250 09/08 A2965 RMK CI3 SLP043=